Dn Vatan — TCZN6 — position and weather

sailwx.info

Track history (hours):
 
Tides and Currents Weather Stations Pressure Air Temp Water Temp Dewpoint Dewpoint Depression Visibility Wind Speed Wind Dir Waves Ship Positions

Dn Vatan

Last reported at 2018-May-21 15:00 UTC. Time now 2018-May-21 15:16 UTC.
Position N 22°22' E 119°14'.

Length 196 m; draft 6.6 m.

Type: Cargo ship. MMSI: 270991365.

Date/timePositionNaut miles runAvg speedWind from/ knotsBaromVisibWave heightAir tempDewpointWater temp
2018-May-21 15:00N 22°22' E 119°14'612.8
2018-May-21 14:30N 22°27' E 119°19'612.9
2018-May-21 14:00N 22°31' E 119°23'713.2
2018-May-21 13:30N 22°36' E 119°28'713.3
2018-May-21 13:00N 22°41' E 119°33'713.2
2018-May-21 12:26N 22°47' E 119°38'813.5
2018-May-21 11:52N 22°54' E 119°42'913.9
2018-May-21 11:11N 23°03' E 119°45'213.3
2018-May-21 11:00N 23°05' E 119°46'50210.7
2018-May-19 12:16N 31°05' E 122°30'2 8.5
2018-May-19 11:59N 31°05' E 122°27'5 6.4
2018-May-19 11:11N 31°06' E 122°21'3 7.1
2018-May-19 10:46N 31°06' E 122°18'4 9.7
2018-May-19 10:22N 31°09' E 122°14'511.6
2018-May-19 09:55N 31°12' E 122°09'613.1
2018-May-19 09:29N 31°14' E 122°03'612.7
2018-May-19 09:01N 31°15' E 121°56'610.5
2018-May-19 08:28N 31°17' E 121°50'510.9
2018-May-19 07:58N 31°19' E 121°44'8 5.8
2018-May-19 06:36N 31°23' E 121°36'1 8.2
2018-May-19 06:30N 31°23' E 121°35'10 3.9
2018-May-19 03:53N 31°14' E 121°30'8 0.2
2018-May-17 16:17N 31°06' E 121°28'0 0.0
2018-May-17 15:38N 31°06' E 121°28'0 0.0
2018-May-17 15:29N 31°06' E 121°28'0 0.0
2018-May-17 14:56N 31°06' E 121°28'18 1.9
2018-May-17 05:18N 31°24' E 121°31'2 5.5
2018-May-17 05:00N 31°24' E 121°33'4 8.5
2018-May-17 04:30N 31°22' E 121°38'610.4
2018-May-17 03:56N 31°19' E 121°44'410.1
2018-May-17 03:30N 31°17' E 121°48'6 9.7
2018-May-17 02:56N 31°16' E 121°55'510.1
2018-May-17 02:28N 31°15' E 122°00'510.0
2018-May-17 02:00N 31°14' E 122°05'5 9.6
2018-May-17 01:28N 31°11' E 122°10'4 8.8
2018-May-17 01:00N 31°09' E 122°14'4 7.4
2018-May-17 00:30N 31°06' E 122°18'510.1
2018-May-17 00:00N 31°06' E 122°24'5 8.9
2018-May-16 23:24N 31°08' E 122°30'15 2.0
2018-May-16 15:56N 31°18' E 122°42'0 0.0
2018-May-16 15:23N 31°18' E 122°42'0 0.0
2018-May-16 14:53N 31°18' E 122°42'0 0.1
2018-May-16 14:17N 31°18' E 122°42'0 0.0
2018-May-16 13:59N 31°18' E 122°42'0 0.0
2018-May-16 13:23N 31°18' E 122°42'0 0.0
2018-May-16 12:14N 31°18' E 122°42'0 0.0
2018-May-16 11:59N 31°18' E 122°42'0 0.1
2018-May-16 11:23N 31°18' E 122°42'0 0.1
2018-May-16 10:59N 31°18' E 122°42'0 0.1
2018-May-16 10:20N 31°18' E 122°42'0 0.0
2018-May-16 09:53N 31°18' E 122°42'0 0.0
2018-May-16 09:11N 31°18' E 122°42'0 0.2
2018-May-16 08:47N 31°18' E 122°42'0 0.0
2018-May-16 08:26N 31°18' E 122°42'0 0.2
2018-May-16 07:47N 31°18' E 122°42'0 0.1
2018-May-16 06:59N 31°18' E 122°42'0 0.1
2018-May-16 06:29N 31°18' E 122°42'0 0.0
2018-May-16 05:59N 31°18' E 122°42'  
2018-May-13 07:11N 37°39' E 122°05'212.9
2018-May-13 07:00N 37°39' E 122°02'713.1
2018-May-13 06:29N 37°39' E 121°53'613.4
2018-May-13 06:00N 37°39' E 121°45'713.6
2018-May-13 05:30N 37°39' E 121°37'612.2
2018-May-13 05:00N 37°38' E 121°29'5 9.5
2018-May-13 04:30N 37°35' E 121°25'2 3.5
2018-May-13 03:59N 37°34' E 121°23'0 0.0
2018-May-13 03:29N 37°34' E 121°23'0 0.0
2018-May-13 02:59N 37°34' E 121°23'0 0.0
2018-May-13 02:29N 37°34' E 121°23'0 0.0
2018-May-13 01:56N 37°34' E 121°23'0 0.0
2018-May-13 01:23N 37°34' E 121°23'0 0.0
2018-May-13 00:56N 37°34' E 121°23'0 0.0
2018-May-13 00:29N 37°34' E 121°23'0 0.0
2018-May-12 23:59N 37°34' E 121°23'0 0.0
2018-May-12 23:29N 37°34' E 121°23'0 0.0
2018-May-12 22:59N 37°34' E 121°23'0 0.0
2018-May-12 22:29N 37°34' E 121°23'0 0.0
2018-May-12 21:53N 37°34' E 121°23'0 0.0
2018-May-12 21:29N 37°34' E 121°23'0 0.0
2018-May-12 20:59N 37°34' E 121°23'0 0.0
2018-May-12 20:26N 37°34' E 121°23'0 0.0
2018-May-12 19:59N 37°34' E 121°23'0 0.0
2018-May-12 19:26N 37°34' E 121°23'0 0.0
2018-May-12 18:59N 37°34' E 121°23'0 0.0
2018-May-12 18:29N 37°34' E 121°23'0 0.0
2018-May-12 17:53N 37°34' E 121°23'0 0.0
2018-May-12 17:26N 37°34' E 121°23'0 0.1
2018-May-12 16:59N 37°34' E 121°23'0 0.1
2018-May-12 16:29N 37°34' E 121°23'0 0.0
2018-May-12 15:59N 37°34' E 121°23'0 0.0
2018-May-12 15:29N 37°34' E 121°23'0 0.0
2018-May-12 14:59N 37°34' E 121°23'0 0.0
2018-May-12 14:26N 37°34' E 121°23'0 0.0
2018-May-12 13:59N 37°34' E 121°23'0 0.0
2018-May-12 13:26N 37°34' E 121°23'0 0.0
2018-May-12 12:59N 37°34' E 121°23'0 0.0
2018-May-12 12:26N 37°34' E 121°23'0 0.0
2018-May-12 11:56N 37°34' E 121°23'0 0.0
2018-May-12 11:29N 37°34' E 121°23'0 0.0
2018-May-12 10:56N 37°34' E 121°23'0 0.0
2018-May-12 10:29N 37°34' E 121°23'0 0.0
2018-May-12 09:59N 37°34' E 121°23'0 0.0
2018-May-12 09:29N 37°34' E 121°23'0 0.0
2018-May-12 08:53N 37°34' E 121°23'0 0.0
2018-May-12 08:29N 37°34' E 121°23'0 0.0
2018-May-12 07:59N 37°34' E 121°23'0 0.0
2018-May-12 07:26N 37°34' E 121°23'0 0.0
2018-May-12 06:56N 37°34' E 121°23'0 0.0
2018-May-12 06:26N 37°34' E 121°23'0 0.0
2018-May-12 05:59N 37°34' E 121°23'0 0.0
2018-May-12 05:29N 37°34' E 121°23'0 0.0
2018-May-12 04:59N 37°34' E 121°23'0 0.0
2018-May-12 04:26N 37°34' E 121°23'0 0.0
2018-May-12 03:59N 37°34' E 121°23'0 0.0
2018-May-12 03:29N 37°34' E 121°23'0 0.0
2018-May-12 02:59N 37°34' E 121°23'0 0.0
2018-May-12 02:26N 37°34' E 121°23'0 0.0
2018-May-12 01:59N 37°34' E 121°23'0 0.0
2018-May-12 01:29N 37°34' E 121°23'0 0.0
2018-May-12 00:59N 37°34' E 121°23'0 0.0
2018-May-12 00:29N 37°34' E 121°23'0 0.0
2018-May-11 23:59N 37°34' E 121°23'0 0.0
2018-May-11 23:29N 37°34' E 121°23'0 0.0
2018-May-11 22:59N 37°34' E 121°23'0 0.0
2018-May-11 22:29N 37°34' E 121°23'0 0.0
2018-May-11 21:59N 37°34' E 121°23'0 0.0
2018-May-11 21:29N 37°34' E 121°23'0 0.0
2018-May-11 20:59N 37°34' E 121°23'0 0.0
2018-May-11 20:29N 37°34' E 121°23'0 0.0
2018-May-11 19:56N 37°34' E 121°23'0 0.0
2018-May-11 19:23N 37°34' E 121°23'0 0.0
2018-May-11 18:59N 37°34' E 121°23'0 0.0
2018-May-11 18:29N 37°34' E 121°23'0 0.0
2018-May-11 17:59N 37°34' E 121°23'0 0.0
2018-May-11 17:29N 37°34' E 121°23'0 0.1
2018-May-11 16:59N 37°34' E 121°23'0 0.1
2018-May-11 16:29N 37°34' E 121°23'0 0.0
2018-May-11 15:59N 37°34' E 121°23'0 0.0
2018-May-11 15:29N 37°34' E 121°23'  
Track history (hours):
 
Tides and Currents Weather Stations Pressure Air Temp Water Temp Dewpoint Dewpoint Depression Visibility Wind Speed Wind Dir Waves Ship Positions

Dn Vatan

Last reported at 2018-May-21 15:00 UTC. Time now 2018-May-21 15:16 UTC.
Position N 22°22' E 119°14'.

Length 196 m; draft 6.6 m.

Type: Cargo ship. MMSI: 270991365.

Date/timePositionNaut miles runAvg speedWind from/ knotsBaromVisibWave heightAir tempDewpointWater temp
2018-May-21 15:00N 22°22' E 119°14'612.8
2018-May-21 14:30N 22°27' E 119°19'612.9
2018-May-21 14:00N 22°31' E 119°23'713.2
2018-May-21 13:30N 22°36' E 119°28'713.3
2018-May-21 13:00N 22°41' E 119°33'713.2
2018-May-21 12:26N 22°47' E 119°38'813.5
2018-May-21 11:52N 22°54' E 119°42'913.9
2018-May-21 11:11N 23°03' E 119°45'213.3
2018-May-21 11:00N 23°05' E 119°46'50210.7
2018-May-19 12:16N 31°05' E 122°30'2 8.5
2018-May-19 11:59N 31°05' E 122°27'5 6.4
2018-May-19 11:11N 31°06' E 122°21'3 7.1
2018-May-19 10:46N 31°06' E 122°18'4 9.7
2018-May-19 10:22N 31°09' E 122°14'511.6
2018-May-19 09:55N 31°12' E 122°09'613.1
2018-May-19 09:29N 31°14' E 122°03'612.7
2018-May-19 09:01N 31°15' E 121°56'610.5
2018-May-19 08:28N 31°17' E 121°50'510.9
2018-May-19 07:58N 31°19' E 121°44'8 5.8
2018-May-19 06:36N 31°23' E 121°36'1 8.2
2018-May-19 06:30N 31°23' E 121°35'10 3.9
2018-May-19 03:53N 31°14' E 121°30'8 0.2
2018-May-17 16:17N 31°06' E 121°28'0 0.0
2018-May-17 15:38N 31°06' E 121°28'0 0.0
2018-May-17 15:29N 31°06' E 121°28'0 0.0
2018-May-17 14:56N 31°06' E 121°28'18 1.9
2018-May-17 05:18N 31°24' E 121°31'2 5.5
2018-May-17 05:00N 31°24' E 121°33'4 8.5
2018-May-17 04:30N 31°22' E 121°38'610.4
2018-May-17 03:56N 31°19' E 121°44'410.1
2018-May-17 03:30N 31°17' E 121°48'6 9.7
2018-May-17 02:56N 31°16' E 121°55'510.1
2018-May-17 02:28N 31°15' E 122°00'510.0
2018-May-17 02:00N 31°14' E 122°05'5 9.6
2018-May-17 01:28N 31°11' E 122°10'4 8.8
2018-May-17 01:00N 31°09' E 122°14'4 7.4
2018-May-17 00:30N 31°06' E 122°18'510.1
2018-May-17 00:00N 31°06' E 122°24'5 8.9
2018-May-16 23:24N 31°08' E 122°30'15 2.0
2018-May-16 15:56N 31°18' E 122°42'0 0.0
2018-May-16 15:23N 31°18' E 122°42'0 0.0
2018-May-16 14:53N 31°18' E 122°42'0 0.1
2018-May-16 14:17N 31°18' E 122°42'0 0.0
2018-May-16 13:59N 31°18' E 122°42'0 0.0
2018-May-16 13:23N 31°18' E 122°42'0 0.0
2018-May-16 12:14N 31°18' E 122°42'0 0.0
2018-May-16 11:59N 31°18' E 122°42'0 0.1
2018-May-16 11:23N 31°18' E 122°42'0 0.1
2018-May-16 10:59N 31°18' E 122°42'0 0.1
2018-May-16 10:20N 31°18' E 122°42'0 0.0
2018-May-16 09:53N 31°18' E 122°42'0 0.0
2018-May-16 09:11N 31°18' E 122°42'0 0.2
2018-May-16 08:47N 31°18' E 122°42'0 0.0
2018-May-16 08:26N 31°18' E 122°42'0 0.2
2018-May-16 07:47N 31°18' E 122°42'0 0.1
2018-May-16 06:59N 31°18' E 122°42'0 0.1
2018-May-16 06:29N 31°18' E 122°42'0 0.0
2018-May-16 05:59N 31°18' E 122°42'  
2018-May-13 07:11N 37°39' E 122°05'212.9
2018-May-13 07:00N 37°39' E 122°02'713.1
2018-May-13 06:29N 37°39' E 121°53'613.4
2018-May-13 06:00N 37°39' E 121°45'713.6
2018-May-13 05:30N 37°39' E 121°37'612.2
2018-May-13 05:00N 37°38' E 121°29'5 9.5
2018-May-13 04:30N 37°35' E 121°25'2 3.5
2018-May-13 03:59N 37°34' E 121°23'0 0.0
2018-May-13 03:29N 37°34' E 121°23'0 0.0
2018-May-13 02:59N 37°34' E 121°23'0 0.0
2018-May-13 02:29N 37°34' E 121°23'0 0.0
2018-May-13 01:56N 37°34' E 121°23'0 0.0
2018-May-13 01:23N 37°34' E 121°23'0 0.0
2018-May-13 00:56N 37°34' E 121°23'0 0.0
2018-May-13 00:29N 37°34' E 121°23'0 0.0
2018-May-12 23:59N 37°34' E 121°23'0 0.0
2018-May-12 23:29N 37°34' E 121°23'0 0.0
2018-May-12 22:59N 37°34' E 121°23'0 0.0
2018-May-12 22:29N 37°34' E 121°23'0 0.0
2018-May-12 21:53N 37°34' E 121°23'0 0.0
2018-May-12 21:29N 37°34' E 121°23'0 0.0
2018-May-12 20:59N 37°34' E 121°23'0 0.0
2018-May-12 20:26N 37°34' E 121°23'0 0.0
2018-May-12 19:59N 37°34' E 121°23'0 0.0
2018-May-12 19:26N 37°34' E 121°23'0 0.0
2018-May-12 18:59N 37°34' E 121°23'0 0.0
2018-May-12 18:29N 37°34' E 121°23'0 0.0
2018-May-12 17:53N 37°34' E 121°23'0 0.0
2018-May-12 17:26N 37°34' E 121°23'0 0.1
2018-May-12 16:59N 37°34' E 121°23'0 0.1
2018-May-12 16:29N 37°34' E 121°23'0 0.0
2018-May-12 15:59N 37°34' E 121°23'0 0.0
2018-May-12 15:29N 37°34' E 121°23'0 0.0
2018-May-12 14:59N 37°34' E 121°23'0 0.0
2018-May-12 14:26N 37°34' E 121°23'0 0.0
2018-May-12 13:59N 37°34' E 121°23'0 0.0
2018-May-12 13:26N 37°34' E 121°23'0 0.0
2018-May-12 12:59N 37°34' E 121°23'0 0.0
2018-May-12 12:26N 37°34' E 121°23'0 0.0
2018-May-12 11:56N 37°34' E 121°23'0 0.0
2018-May-12 11:29N 37°34' E 121°23'0 0.0
2018-May-12 10:56N 37°34' E 121°23'0 0.0
2018-May-12 10:29N 37°34' E 121°23'0 0.0
2018-May-12 09:59N 37°34' E 121°23'0 0.0
2018-May-12 09:29N 37°34' E 121°23'0 0.0
2018-May-12 08:53N 37°34' E 121°23'0 0.0
2018-May-12 08:29N 37°34' E 121°23'0 0.0
2018-May-12 07:59N 37°34' E 121°23'0 0.0
2018-May-12 07:26N 37°34' E 121°23'0 0.0
2018-May-12 06:56N 37°34' E 121°23'0 0.0
2018-May-12 06:26N 37°34' E 121°23'0 0.0
2018-May-12 05:59N 37°34' E 121°23'0 0.0
2018-May-12 05:29N 37°34' E 121°23'0 0.0
2018-May-12 04:59N 37°34' E 121°23'0 0.0
2018-May-12 04:26N 37°34' E 121°23'0 0.0
2018-May-12 03:59N 37°34' E 121°23'0 0.0
2018-May-12 03:29N 37°34' E 121°23'0 0.0
2018-May-12 02:59N 37°34' E 121°23'0 0.0
2018-May-12 02:26N 37°34' E 121°23'0 0.0
2018-May-12 01:59N 37°34' E 121°23'0 0.0
2018-May-12 01:29N 37°34' E 121°23'0 0.0
2018-May-12 00:59N 37°34' E 121°23'0 0.0
2018-May-12 00:29N 37°34' E 121°23'0 0.0
2018-May-11 23:59N 37°34' E 121°23'0 0.0
2018-May-11 23:29N 37°34' E 121°23'0 0.0
2018-May-11 22:59N 37°34' E 121°23'0 0.0
2018-May-11 22:29N 37°34' E 121°23'0 0.0
2018-May-11 21:59N 37°34' E 121°23'0 0.0
2018-May-11 21:29N 37°34' E 121°23'0 0.0
2018-May-11 20:59N 37°34' E 121°23'0 0.0
2018-May-11 20:29N 37°34' E 121°23'0 0.0
2018-May-11 19:56N 37°34' E 121°23'0 0.0
2018-May-11 19:23N 37°34' E 121°23'0 0.0
2018-May-11 18:59N 37°34' E 121°23'0 0.0
2018-May-11 18:29N 37°34' E 121°23'0 0.0
2018-May-11 17:59N 37°34' E 121°23'0 0.0
2018-May-11 17:29N 37°34' E 121°23'0 0.1
2018-May-11 16:59N 37°34' E 121°23'0 0.1
2018-May-11 16:29N 37°34' E 121°23'0 0.0
2018-May-11 15:59N 37°34' E 121°23'0 0.0
2018-May-11 15:29N 37°34' E 121°23'  

Dump ship's entire track history